Time;durP1;ratioP1;P1;durP2;ratioP2;P2;SDS_P1;SDS_P2;PMS_P1;PMS_P2;Temp;Humidity;BMP_temperature;BMP_pressure;BME280_temperature;BME280_humidity;BME280_pressure;Samples;Min_cycle;Max_cycle;Signal;HPM_P1;HPM_P2
2024/01/10 00:01:51;;;;;;;84.88;56.53;;;18.20;72.70;;;;;;5053451;28;20021;-69
2024/01/10 00:04:17;;;;;;;80.90;53.75;;;18.20;72.70;;;;;;5054794;28;20051;-69
2024/01/10 00:06:43;;;;;;;83.05;54.38;;;18.20;72.90;;;;;;5054789;28;20642;-69
2024/01/10 00:09:09;;;;;;;77.40;51.80;;;18.10;72.90;;;;;;5054429;28;20047;-69
2024/01/10 00:11:34;;;;;;;73.38;50.63;;;18.20;73.10;;;;;;5054469;28;20021;-66
2024/01/10 00:14:00;;;;;;;73.22;50.25;;;18.20;73.30;;;;;;5054523;28;20048;-66
2024/01/10 00:16:26;;;;;;;74.68;50.40;;;18.20;73.30;;;;;;5054371;28;20159;-66
2024/01/10 00:18:52;;;;;;;71.43;49.10;;;18.10;73.30;;;;;;5054381;28;20021;-66
2024/01/10 00:21:18;;;;;;;65.82;45.15;;;18.10;73.40;;;;;;5053957;28;20028;-66
2024/01/10 00:23:43;;;;;;;68.25;45.03;;;18.10;73.40;;;;;;5054260;28;20021;-65
2024/01/10 00:26:09;;;;;;;68.43;46.17;;;18.10;73.50;;;;;;5054182;28;20036;-66
2024/01/10 00:28:35;;;;;;;62.95;44.08;;;18.10;73.60;;;;;;5054267;28;20017;-67
2024/01/10 00:31:00;;;;;;;68.10;42.05;;;18.10;73.60;;;;;;5053667;28;20025;-67
2024/01/10 00:33:26;;;;;;;66.63;42.50;;;18.20;74.50;;;;;;5054073;28;20040;-68
2024/01/10 00:35:52;;;;;;;71.68;47.50;;;18.20;73.80;;;;;;5054060;28;20017;-67
2024/01/10 00:38:17;;;;;;;67.10;45.70;;;18.30;72.70;;;;;;5053764;28;20032;-67
2024/01/10 00:40:43;;;;;;;67.00;44.35;;;18.30;72.00;;;;;;5053637;28;20024;-66
2024/01/10 00:43:09;;;;;;;66.90;45.28;;;18.30;72.00;;;;;;5053656;28;20029;-67
2024/01/10 00:45:34;;;;;;;67.63;45.05;;;18.30;71.90;;;;;;5053814;28;20029;-66
2024/01/10 00:48:00;;;;;;;70.10;45.53;;;18.30;71.70;;;;;;5053819;28;20068;-67
2024/01/10 00:50:25;;;;;;;65.93;43.90;;;18.40;71.70;;;;;;5053720;28;20514;-66
2024/01/10 00:52:51;;;;;;;65.80;42.28;;;18.40;71.60;;;;;;5053806;28;20033;-65
2024/01/10 00:55:16;;;;;;;61.83;42.78;;;18.40;71.60;;;;;;5053496;28;20025;-66
2024/01/10 00:57:42;;;;;;;61.33;41.75;;;18.40;71.50;;;;;;5053519;28;20028;-66
2024/01/10 01:00:10;;;;;;;59.97;39.90;;;18.40;71.50;;;;;;5052407;28;20063;-66
2024/01/10 01:02:36;;;;;;;63.15;41.42;;;18.40;71.50;;;;;;5054765;28;20037;-70
2024/01/10 01:05:02;;;;;;;57.97;39.15;;;18.40;71.60;;;;;;5044102;28;20091;-66
2024/01/10 01:07:28;;;;;;;55.72;39.03;;;18.40;71.70;;;;;;5033909;28;20037;-66
2024/01/10 01:09:54;;;;;;;59.47;38.38;;;18.30;71.70;;;;;;5033717;28;20414;-66
2024/01/10 01:12:19;;;;;;;53.67;38.08;;;18.30;71.70;;;;;;5033246;28;20486;-67
2024/01/10 01:14:45;;;;;;;54.05;36.53;;;18.40;71.70;;;;;;5033296;28;20047;-66
2024/01/10 01:17:12;;;;;;;55.10;36.60;;;18.40;71.60;;;;;;5033382;28;20026;-70
2024/01/10 01:19:38;;;;;;;54.42;36.70;;;18.40;71.60;;;;;;5033241;28;20025;-67
2024/01/10 01:22:04;;;;;;;54.80;36.13;;;18.40;71.60;;;;;;5033567;28;20112;-68
2024/01/10 01:24:29;;;;;;;52.00;35.25;;;18.40;71.70;;;;;;5033205;28;20022;-67
2024/01/10 01:26:55;;;;;;;54.25;35.00;;;18.50;71.80;;;;;;5033343;28;20029;-68
2024/01/10 01:29:21;;;;;;;50.55;33.05;;;18.50;71.90;;;;;;5032995;28;20525;-65
2024/01/10 01:31:47;;;;;;;48.88;34.10;;;18.50;71.90;;;;;;5032914;28;20034;-66
2024/01/10 01:34:12;;;;;;;59.17;33.03;;;18.50;71.80;;;;;;5032891;28;20368;-67
2024/01/10 01:36:38;;;;;;;46.17;32.67;;;18.50;71.80;;;;;;5032984;28;20032;-66
2024/01/10 01:39:04;;;;;;;45.53;29.75;;;18.50;71.90;;;;;;5053775;22;20491;-75
2024/01/10 01:41:30;;;;;;;46.40;31.80;;;18.50;71.70;;;;;;5029953;28;20009;-70
2024/01/10 01:43:55;;;;;;;48.53;30.42;;;18.50;71.90;;;;;;5030593;28;20064;-72
2024/01/10 01:46:22;;;;;;;42.03;29.38;;;18.50;71.90;;;;;;5031275;28;20110;-70
2024/01/10 01:48:48;;;;;;;44.63;30.08;;;18.50;71.80;;;;;;5027162;28;20100;-71
2024/01/10 01:51:15;;;;;;;44.17;29.02;;;18.50;71.80;;;;;;5010872;28;20368;-70
2024/01/10 01:53:41;;;;;;;42.80;30.65;;;18.50;71.80;;;;;;5015587;28;20109;-71
2024/01/10 01:56:08;;;;;;;43.78;29.00;;;18.50;71.70;;;;;;5017948;28;20519;-71
2024/01/10 01:58:36;;;;;;;44.60;28.27;;;18.50;71.80;;;;;;5010893;28;20026;-68
2024/01/10 02:01:03;;;;;;;40.97;28.50;;;18.50;71.70;;;;;;5010685;28;20018;-68
2024/01/10 02:03:31;;;;;;;43.70;27.40;;;18.50;71.80;;;;;;5010801;28;20545;-69
2024/01/10 02:05:57;;;;;;;43.88;27.83;;;18.50;71.70;;;;;;5010724;28;20034;-69
2024/01/10 02:08:23;;;;;;;38.95;25.92;;;18.50;71.60;;;;;;5010637;28;20052;-67
2024/01/10 02:10:49;;;;;;;36.92;25.40;;;18.50;71.60;;;;;;5010169;28;20041;-69
2024/01/10 02:13:15;;;;;;;37.28;26.20;;;18.50;71.60;;;;;;5010847;28;20064;-69
2024/01/10 02:15:41;;;;;;;38.50;26.58;;;18.50;71.50;;;;;;5010588;28;20025;-69
2024/01/10 02:18:07;;;;;;;36.13;25.20;;;18.50;71.40;;;;;;5014475;28;20018;-69
2024/01/10 02:20:33;;;;;;;38.92;26.27;;;18.50;71.60;;;;;;5021788;28;20075;-68
2024/01/10 02:22:58;;;;;;;34.33;24.45;;;18.50;71.40;;;;;;5029707;28;20029;-70
2024/01/10 02:25:24;;;;;;;34.78;23.45;;;18.50;71.50;;;;;;5029478;28;20493;-68
2024/01/10 02:27:50;;;;;;;36.58;23.75;;;18.50;71.50;;;;;;5010326;28;20096;-69
2024/01/10 02:30:15;;;;;;;33.05;23.23;;;18.50;71.50;;;;;;5010182;28;20032;-70
2024/01/10 02:32:41;;;;;;;34.80;23.35;;;18.50;71.40;;;;;;5010129;28;20113;-69
2024/01/10 02:35:08;;;;;;;36.97;22.60;;;18.50;71.40;;;;;;5010286;28;20105;-70
2024/01/10 02:37:33;;;;;;;27.77;19.88;;;18.50;71.50;;;;;;5010111;28;20037;-70
2024/01/10 02:39:59;;;;;;;37.83;23.90;;;18.50;71.40;;;;;;5009851;28;20036;-69
2024/01/10 02:42:27;;;;;;;32.65;22.30;;;18.50;71.40;;;;;;5010254;28;20052;-69
2024/01/10 02:44:53;;;;;;;31.85;21.70;;;18.50;71.50;;;;;;5009952;28;20053;-72
2024/01/10 02:47:18;;;;;;;37.33;21.67;;;18.50;71.60;;;;;;5010211;28;20408;-70
2024/01/10 02:49:44;;;;;;;33.90;20.95;;;18.50;71.80;;;;;;5009545;28;20129;-71
2024/01/10 02:52:10;;;;;;;32.15;20.20;;;18.50;71.70;;;;;;5010060;28;20028;-72
2024/01/10 02:54:35;;;;;;;33.97;20.33;;;18.50;71.70;;;;;;5009898;28;20325;-72
2024/01/10 02:57:01;;;;;;;28.13;19.80;;;18.50;71.70;;;;;;5009912;28;20129;-69
2024/01/10 02:59:26;;;;;;;29.33;19.92;;;18.50;71.70;;;;;;5009923;28;20044;-70
2024/01/10 03:01:52;;;;;;;26.73;19.17;;;18.50;71.60;;;;;;5009576;28;20026;-71
2024/01/10 03:04:18;;;;;;;28.33;19.42;;;18.50;71.60;;;;;;5009942;28;20021;-70
2024/01/10 03:06:44;;;;;;;27.13;19.00;;;18.50;71.60;;;;;;5009806;28;20127;-69
2024/01/10 03:09:09;;;;;;;29.15;18.38;;;18.50;71.70;;;;;;5009571;28;20073;-72
2024/01/10 03:11:36;;;;;;;29.90;18.98;;;18.50;71.60;;;;;;5017715;28;20022;-68
2024/01/10 03:14:06;;;;;;;26.85;18.23;;;18.60;71.50;;;;;;5028892;28;20075;-70
2024/01/10 03:16:32;;;;;;;25.85;18.08;;;18.60;71.60;;;;;;5028053;28;20418;-69
2024/01/10 03:18:58;;;;;;;25.23;17.60;;;18.60;71.50;;;;;;5029240;28;20037;-70
2024/01/10 03:21:25;;;;;;;26.73;18.10;;;18.60;71.50;;;;;;5029218;28;20043;-69
2024/01/10 03:23:57;;;;;;;25.95;16.98;;;18.50;71.40;;;;;;5029614;28;20022;-70
2024/01/10 03:26:24;;;;;;;23.23;16.30;;;18.60;71.50;;;;;;5029980;28;20017;-69
2024/01/10 03:28:49;;;;;;;26.52;17.92;;;18.50;71.40;;;;;;5029185;28;20372;-70
2024/01/10 03:31:15;;;;;;;24.40;16.70;;;18.50;71.40;;;;;;5029465;28;20018;-71
2024/01/10 03:33:41;;;;;;;25.58;17.38;;;18.50;71.50;;;;;;5029363;28;20131;-69
2024/01/10 03:36:11;;;;;;;26.58;16.95;;;18.50;71.50;;;;;;5030996;28;20040;-71
2024/01/10 03:38:37;;;;;;;22.30;15.52;;;18.50;71.60;;;;;;5033047;28;20030;-71
2024/01/10 03:41:02;;;;;;;21.30;14.95;;;18.50;71.60;;;;;;5020339;28;20029;-69
2024/01/10 03:43:28;;;;;;;24.50;15.65;;;18.50;72.00;;;;;;5013339;28;20026;-68
2024/01/10 03:45:53;;;;;;;24.02;15.13;;;18.50;72.30;;;;;;5013170;28;20030;-69
2024/01/10 03:48:19;;;;;;;24.20;15.07;;;18.50;72.50;;;;;;5013483;28;20022;-69
2024/01/10 03:50:45;;;;;;;21.30;14.77;;;18.50;72.80;;;;;;5013687;28;20105;-69
2024/01/10 03:53:10;;;;;;;23.85;14.35;;;18.50;73.00;;;;;;5020556;28;20022;-69
2024/01/10 03:55:36;;;;;;;23.20;14.68;;;18.50;73.20;;;;;;5013453;28;20057;-69
2024/01/10 03:58:02;;;;;;;20.45;14.23;;;18.50;73.30;;;;;;5013069;28;20049;-68
2024/01/10 04:00:27;;;;;;;20.48;13.68;;;18.50;73.50;;;;;;5019796;28;20022;-68
2024/01/10 04:02:53;;;;;;;24.40;13.95;;;18.50;73.60;;;;;;5012909;28;20109;-71
2024/01/10 04:05:20;;;;;;;29.55;14.40;;;18.50;74.40;;;;;;5012981;28;20050;-71
2024/01/10 04:07:46;;;;;;;26.60;13.68;;;18.50;73.90;;;;;;5012922;28;20022;-68
2024/01/10 04:10:13;;;;;;;21.85;13.30;;;18.50;73.90;;;;;;5012832;28;20368;-71
2024/01/10 04:12:43;;;;;;;21.38;13.15;;;18.50;73.90;;;;;;5013038;28;20022;-69
2024/01/10 04:15:09;;;;;;;19.50;13.43;;;18.50;73.90;;;;;;5012912;28;20136;-71
2024/01/10 04:17:35;;;;;;;26.77;12.20;;;18.50;73.90;;;;;;5013096;28;20024;-71
2024/01/10 04:20:02;;;;;;;19.45;11.45;;;18.50;73.70;;;;;;5015432;28;20025;-72
2024/01/10 04:22:27;;;;;;;20.15;11.55;;;18.50;73.90;;;;;;5024175;28;20037;-69
2024/01/10 04:24:53;;;;;;;23.48;12.15;;;18.50;74.00;;;;;;5032134;28;20021;-72
2024/01/10 04:27:19;;;;;;;18.63;11.43;;;18.50;73.90;;;;;;5030924;28;20492;-70
2024/01/10 04:29:44;;;;;;;18.17;11.88;;;18.50;74.00;;;;;;5031972;28;20022;-70
2024/01/10 04:32:10;;;;;;;17.25;11.45;;;18.50;74.00;;;;;;5032192;28;20018;-71
2024/01/10 04:34:36;;;;;;;18.45;11.70;;;18.40;74.00;;;;;;5030713;28;20403;-69
2024/01/10 04:37:02;;;;;;;17.63;9.95;;;18.40;74.00;;;;;;5031861;28;20028;-69
2024/01/10 04:39:28;;;;;;;16.48;10.32;;;18.40;74.00;;;;;;5025564;28;20034;-70
2024/01/10 04:41:54;;;;;;;19.75;10.93;;;18.40;74.10;;;;;;5012553;28;20037;-72
2024/01/10 04:44:19;;;;;;;13.05;9.63;;;18.40;74.00;;;;;;5014114;28;20021;-71
2024/01/10 04:46:45;;;;;;;16.42;10.50;;;18.40;74.00;;;;;;5013891;28;20026;-71
2024/01/10 04:49:11;;;;;;;14.23;9.93;;;18.40;74.10;;;;;;5014718;28;20475;-70
2024/01/10 04:51:37;;;;;;;15.73;10.30;;;18.40;74.10;;;;;;5023449;28;20046;-70
2024/01/10 04:54:03;;;;;;;16.13;10.45;;;18.40;74.10;;;;;;5031466;28;20026;-70
2024/01/10 04:56:29;;;;;;;14.93;10.30;;;18.40;74.00;;;;;;5031552;28;20020;-68
2024/01/10 04:58:54;;;;;;;16.98;9.60;;;18.40;74.10;;;;;;5038260;28;20041;-71
2024/01/10 05:01:20;;;;;;;16.02;9.93;;;18.30;74.10;;;;;;5031117;28;20022;-70
2024/01/10 05:03:46;;;;;;;15.55;9.98;;;18.30;74.10;;;;;;5023104;28;20097;-70
2024/01/10 05:06:11;;;;;;;14.95;9.23;;;18.40;74.00;;;;;;5023600;28;20498;-70
2024/01/10 05:08:37;;;;;;;15.77;9.32;;;18.30;74.10;;;;;;5020930;28;20080;-70
2024/01/10 05:11:03;;;;;;;12.48;8.90;;;18.40;74.00;;;;;;5011749;28;20391;-70
2024/01/10 05:13:29;;;;;;;12.60;9.00;;;18.30;74.10;;;;;;5018547;28;20021;-70
2024/01/10 05:15:55;;;;;;;12.45;9.20;;;18.30;74.20;;;;;;5028098;28;20348;-70
2024/01/10 05:18:21;;;;;;;15.77;8.85;;;18.30;74.10;;;;;;5011960;28;20033;-70
2024/01/10 05:20:47;;;;;;;15.13;8.85;;;18.30;74.00;;;;;;5011332;28;20037;-70
2024/01/10 05:23:13;;;;;;;14.52;9.02;;;18.30;73.90;;;;;;5012238;28;20033;-70
2024/01/10 05:25:39;;;;;;;12.48;8.63;;;18.30;73.70;;;;;;5010997;28;20117;-69
2024/01/10 05:28:05;;;;;;;12.20;8.15;;;18.30;73.70;;;;;;5012231;28;20108;-70
2024/01/10 05:30:31;;;;;;;12.15;8.40;;;18.40;73.80;;;;;;5012112;28;20621;-69
2024/01/10 05:32:58;;;;;;;11.68;8.85;;;18.40;73.70;;;;;;5011992;28;20079;-71
2024/01/10 05:35:25;;;;;;;11.30;8.18;;;18.30;73.70;;;;;;5012281;28;20014;-68
2024/01/10 05:37:51;;;;;;;16.65;8.82;;;18.40;73.90;;;;;;5012105;28;20049;-70
2024/01/10 05:40:18;;;;;;;12.60;8.82;;;18.30;73.90;;;;;;5012114;28;20061;-70
2024/01/10 05:42:44;;;;;;;12.30;8.20;;;18.30;74.10;;;;;;5012025;28;20409;-70
2024/01/10 05:45:10;;;;;;;13.95;8.70;;;18.30;74.10;;;;;;5011964;28;20030;-70
2024/01/10 05:47:36;;;;;;;12.13;8.00;;;18.40;74.00;;;;;;5012393;28;20038;-70
2024/01/10 05:50:06;;;;;;;14.52;8.27;;;18.40;74.40;;;;;;5019920;28;20018;-71
2024/01/10 05:52:33;;;;;;;10.77;7.35;;;18.40;74.30;;;;;;5011589;28;20037;-72
2024/01/10 05:54:59;;;;;;;15.32;7.70;;;18.40;74.30;;;;;;5011255;28;20038;-70
2024/01/10 05:57:24;;;;;;;12.32;8.48;;;18.40;74.40;;;;;;5020740;28;20475;-69
2024/01/10 05:59:52;;;;;;;13.15;7.82;;;18.40;74.30;;;;;;5026750;28;20026;-70
2024/01/10 06:02:18;;;;;;;11.85;7.28;;;18.30;74.30;;;;;;5011173;28;20424;-70
2024/01/10 06:04:43;;;;;;;10.40;7.60;;;18.30;74.30;;;;;;5010875;28;20034;-69
2024/01/10 06:07:09;;;;;;;9.60;6.93;;;18.30;74.30;;;;;;5011078;28;20053;-70
2024/01/10 06:09:35;;;;;;;11.05;7.70;;;18.30;74.20;;;;;;5010550;28;20507;-70
2024/01/10 06:12:00;;;;;;;10.93;6.70;;;18.30;74.20;;;;;;5010751;28;20038;-71
2024/01/10 06:14:26;;;;;;;11.50;7.22;;;18.40;74.10;;;;;;5011152;28;20048;-71
2024/01/10 06:16:51;;;;;;;12.52;7.40;;;18.30;74.20;;;;;;5010522;28;20014;-69
2024/01/10 06:19:18;;;;;;;10.57;7.47;;;18.30;74.20;;;;;;5010649;28;20061;-69
2024/01/10 06:21:44;;;;;;;10.60;7.10;;;18.30;74.10;;;;;;5010599;28;20047;-70
2024/01/10 06:24:09;;;;;;;9.18;6.88;;;18.30;74.20;;;;;;5010661;28;20372;-70
2024/01/10 06:26:35;;;;;;;9.00;6.43;;;18.30;74.20;;;;;;5018139;28;20099;-71
2024/01/10 06:29:00;;;;;;;11.48;7.35;;;18.30;74.20;;;;;;5021736;28;20040;-71
2024/01/10 06:31:29;;;;;;;11.50;6.80;;;18.30;74.20;;;;;;5028417;28;20033;-73
2024/01/10 06:33:55;;;;;;;10.05;7.10;;;18.30;74.20;;;;;;5011846;28;20036;-72
2024/01/10 06:36:21;;;;;;;10.32;6.53;;;18.40;74.10;;;;;;5010212;28;20025;-71
2024/01/10 06:38:47;;;;;;;11.30;6.97;;;18.40;74.20;;;;;;5010141;28;20038;-72
2024/01/10 06:41:13;;;;;;;10.07;6.22;;;18.40;74.30;;;;;;5010478;28;20056;-70
2024/01/10 06:43:40;;;;;;;8.43;6.10;;;18.30;74.20;;;;;;5009980;28;20037;-67
2024/01/10 06:46:06;;;;;;;9.40;6.05;;;18.30;74.20;;;;;;5010002;28;20026;-68
2024/01/10 06:48:32;;;;;;;8.55;6.20;;;18.30;74.10;;;;;;5010290;28;20026;-71
2024/01/10 06:50:58;;;;;;;9.43;6.57;;;18.30;74.10;;;;;;5009838;28;20029;-72
2024/01/10 06:53:24;;;;;;;7.63;5.53;;;18.30;74.10;;;;;;5010247;28;20078;-70
2024/01/10 06:55:50;;;;;;;9.65;6.35;;;18.30;74.30;;;;;;5016589;28;20104;-72
2024/01/10 06:58:16;;;;;;;9.02;5.65;;;18.40;74.30;;;;;;5010071;28;20076;-72
2024/01/10 07:00:41;;;;;;;9.10;5.72;;;18.30;74.30;;;;;;5009372;28;20030;-70
2024/01/10 07:03:07;;;;;;;9.23;6.15;;;18.30;74.20;;;;;;5009590;28;20029;-73
2024/01/10 07:05:33;;;;;;;7.18;5.63;;;18.30;74.30;;;;;;5008510;28;20022;-70
2024/01/10 07:08:02;;;;;;;8.65;6.38;;;18.30;74.30;;;;;;5009681;28;20588;-70
2024/01/10 07:10:28;;;;;;;8.00;5.43;;;18.30;73.90;;;;;;5009068;28;20022;-69
2024/01/10 07:12:55;;;;;;;8.93;6.10;;;18.30;73.80;;;;;;5009715;28;20506;-69
2024/01/10 07:15:21;;;;;;;7.65;5.15;;;18.20;73.90;;;;;;5009844;28;20021;-69
2024/01/10 07:17:47;;;;;;;7.70;5.75;;;18.30;74.00;;;;;;5009600;28;20162;-68
2024/01/10 07:20:13;;;;;;;9.02;5.78;;;18.30;74.20;;;;;;5009654;28;20096;-70
2024/01/10 07:22:43;;;;;;;7.65;5.72;;;18.30;74.20;;;;;;5009641;28;20045;-70
2024/01/10 07:25:10;;;;;;;6.85;5.05;;;18.30;74.30;;;;;;5017079;28;20083;-70
2024/01/10 07:27:37;;;;;;;7.80;6.00;;;18.30;74.20;;;;;;5009849;28;20065;-69
2024/01/10 07:30:10;;;;;;;9.98;5.80;;;18.30;74.60;;;;;;5009179;28;20060;-69
2024/01/10 07:32:36;;;;;;;11.05;5.07;;;18.30;74.60;;;;;;5009728;28;20018;-68
2024/01/10 07:35:01;;;;;;;9.20;5.95;;;18.30;74.70;;;;;;5009083;28;20538;-70
2024/01/10 07:37:27;;;;;;;12.40;5.25;;;18.40;74.80;;;;;;5007831;28;20072;-71
2024/01/10 07:39:54;;;;;;;12.77;6.07;;;18.40;75.00;;;;;;5008915;28;20498;-71
2024/01/10 07:42:19;;;;;;;10.55;5.28;;;18.40;75.00;;;;;;5009741;28;20032;-67
2024/01/10 07:44:45;;;;;;;19.23;5.75;;;18.40;75.30;;;;;;5015547;28;20026;-67
2024/01/10 07:47:10;;;;;;;16.52;5.65;;;18.40;75.50;;;;;;5009330;28;20044;-66
2024/01/10 07:49:37;;;;;;;20.65;5.55;;;18.50;74.60;;;;;;5016774;28;20033;-68
2024/01/10 07:52:04;;;;;;;39.75;23.77;;;18.60;74.10;;;;;;5020774;28;20028;-71
2024/01/10 07:54:31;;;;;;;42.75;30.88;;;18.20;55.80;;;;;;5028767;28;20025;-71
2024/01/10 07:56:58;;;;;;;43.63;30.13;;;14.00;33.70;;;;;;5026194;28;20447;-71
2024/01/10 07:59:24;;;;;;;48.47;31.35;;;;;;;;;;5008933;28;20125;-70
2024/01/10 08:01:58;;;;;;;55.35;30.38;;;;;;;;;;5015498;28;20033;-71
2024/01/10 08:04:24;;;;;;;36.63;22.15;;;;;;;;;;5017122;28;20101;-68
2024/01/10 08:06:50;;;;;;;46.72;25.10;;;;;;;;;;5017401;28;20471;-69
2024/01/10 08:09:16;;;;;;;56.42;24.70;;;;;;;;;;5009017;28;20066;-69
2024/01/10 08:11:43;;;;;;;24.15;13.30;;;;;;;;;;5009099;28;20030;-68
2024/01/10 08:14:09;;;;;;;26.67;11.90;;;;;;;;;;5027377;28;20410;-69
2024/01/10 08:16:35;;;;;;;23.55;13.00;;;;;;;;;;5028633;28;20087;-69
2024/01/10 08:19:01;;;;;;;21.58;12.25;;;;;;;;;;5029066;28;20738;-69
2024/01/10 08:21:27;;;;;;;21.88;11.95;;;;;;;;;;5028867;28;20033;-68
2024/01/10 08:23:53;;;;;;;30.13;13.45;;;;;;;;;;5032486;28;20025;-68
2024/01/10 08:26:19;;;;;;;23.88;13.10;;;;;;;;;;5032608;28;20053;-68
2024/01/10 08:28:45;;;;;;;26.25;11.63;;;;;;;;;;5032375;28;20032;-67
2024/01/10 08:31:12;;;;;;;35.70;12.82;;;;;;;;;;5032145;28;20030;-70
2024/01/10 08:33:39;;;;;;;25.95;11.35;;;;;;;;;;5032433;28;20037;-68
2024/01/10 08:36:05;;;;;;;27.33;10.75;;;;;;;;;;5032330;28;20129;-68
2024/01/10 08:38:31;;;;;;;27.70;10.55;;;;;;;;;;5032318;28;20116;-69
2024/01/10 08:40:57;;;;;;;26.08;10.43;;;;;;;;;;5032171;28;20097;-70
2024/01/10 08:43:23;;;;;;;18.38;9.85;;;;;;;;;;5031423;28;20052;-68
2024/01/10 08:45:52;;;;;;;28.23;10.40;;;;;;;;;;5032403;28;20033;-70
2024/01/10 08:48:18;;;;;;;19.67;9.25;;;;;;;;;;5032118;28;20084;-70
2024/01/10 08:50:46;;;;;;;24.80;8.75;;;;;;;;;;5032053;28;20434;-72
2024/01/10 08:53:18;;;;;;;44.05;31.35;;;;;;;;;;5032323;28;20025;-71
2024/01/10 08:55:47;;;;;;;42.45;29.98;;;;;;;;;;5032068;28;20017;-71
2024/01/10 08:58:19;;;;;;;50.95;30.80;;;;;;;;;;5032036;28;20356;-71
2024/01/10 09:00:44;;;;;;;43.65;29.25;;;;;;;;;;5032466;28;20053;-68
2024/01/10 09:03:10;;;;;;;36.97;20.48;;;;;;;;;;5032731;28;20403;-69
2024/01/10 09:05:36;;;;;;;36.53;24.17;;;;;;;;;;5032829;28;20041;-69
2024/01/10 09:08:03;;;;;;;39.75;23.90;;;;;;;;;;5033359;28;20076;-70
2024/01/10 09:10:29;;;;;;;43.38;26.92;;;;;;;;;;5032860;28;20179;-69
2024/01/10 09:12:55;;;;;;;42.55;28.95;;;;;;;;;;5033051;28;20055;-69
2024/01/10 09:15:21;;;;;;;47.45;29.60;;;;;;;;;;5033018;28;20021;-69
2024/01/10 09:17:47;;;;;;;42.35;26.92;;;;;;;;;;5032848;28;20403;-69
2024/01/10 09:20:13;;;;;;;40.67;26.42;;;;;;;;;;5032627;28;20049;-70
2024/01/10 09:22:39;;;;;;;44.30;26.08;;;;;;;;;;5032871;28;20021;-69
2024/01/10 09:25:06;;;;;;;35.50;24.80;;;;;;;;;;5029578;28;20030;-69
2024/01/10 09:27:33;;;;;;;37.95;24.65;;;;;;;;;;5032017;28;20479;-69
2024/01/10 09:30:08;;;;;;;40.38;24.33;;;;;;;;;;5031997;28;20021;-69
2024/01/10 09:32:37;;;;;;;38.13;23.20;;;;;;;;;;5032946;28;20045;-69
2024/01/10 09:35:03;;;;;;;36.15;22.35;;;;;;;;;;5032693;28;20394;-70
2024/01/10 09:37:30;;;;;;;35.53;21.10;;;;;;;;;;5032852;28;20018;-72
2024/01/10 09:39:56;;;;;;;31.50;21.30;;;;;;;;;;5032416;28;20037;-72
2024/01/10 09:42:25;;;;;;;32.83;20.42;;;;;;;;;;5032853;28;20509;-73
2024/01/10 09:44:52;;;;;;;31.48;20.20;;;;;;;;;;5032692;28;20022;-69
2024/01/10 09:47:19;;;;;;;32.63;19.83;;;;;;;;;;5032917;28;20399;-69
2024/01/10 09:49:46;;;;;;;30.58;19.23;;;;;;;;;;5031364;28;20021;-68
2024/01/10 09:52:15;;;;;;;30.63;18.27;;;;;;;;;;5031873;28;20521;-67
2024/01/10 09:54:41;;;;;;;39.70;19.38;;;;;;;;;;5031841;28;20021;-67
2024/01/10 09:57:09;;;;;;;29.52;18.55;;;;;;;;;;5031754;28;20053;-67
2024/01/10 09:59:36;;;;;;;38.75;17.88;;;;;;;;;;5031582;28;20067;-67
2024/01/10 10:02:04;;;;;;;40.00;18.50;;;;;;;;;;5013274;28;20163;-67
2024/01/10 10:04:31;;;;;;;27.77;16.67;;;;;;;;;;5012773;28;20399;-68
2024/01/10 10:07:01;;;;;;;23.88;16.67;;;;;;;;;;5032273;28;20021;-68
2024/01/10 10:09:27;;;;;;;29.10;17.27;;;;;;;;;;5032064;28;20061;-67
2024/01/10 10:11:54;;;;;;;24.02;16.13;;;;;;;;;;5030279;28;20032;-67
2024/01/10 10:14:20;;;;;;;25.40;15.60;;;;;;;;;;5030815;28;20028;-67
2024/01/10 10:16:46;;;;;;;23.40;15.70;;;;;;;;;;5032182;28;20041;-67
2024/01/10 10:19:13;;;;;;;23.38;14.68;;;;;;;;;;5031993;28;20372;-68
2024/01/10 10:21:39;;;;;;;28.55;14.57;;;;;;;;;;5031860;28;20024;-67
2024/01/10 10:24:05;;;;;;;23.65;13.00;;;;;;;;;;5031930;28;20068;-65
2024/01/10 10:26:35;;;;;;;24.73;13.32;;;;;;;;;;5031453;28;20017;-67
2024/01/10 10:29:02;;;;;;;17.83;12.85;;;;;;;;;;5031006;28;20079;-67
2024/01/10 10:31:31;;;;;;;20.48;12.32;;;;;;;;;;5031149;28;20422;-68
2024/01/10 10:33:57;;;;;;;21.00;12.65;;;;;;;;;;5031065;28;20096;-68
2024/01/10 10:36:24;;;;;;;20.50;11.48;;;;;;;;;;5031039;28;20052;-67
2024/01/10 10:38:50;;;;;;;17.80;11.52;;;;;;;;;;5030946;28;20034;-70
2024/01/10 10:41:16;;;;;;;23.95;14.70;;;;;;;;;;5031167;28;20021;-67
2024/01/10 10:43:42;;;;;;;26.23;14.40;;;;;;;;;;5031250;28;20033;-68
2024/01/10 10:46:16;;;;;;;26.67;15.02;;;;;;;;;;5031203;28;20033;-68
2024/01/10 10:48:42;;;;;;;27.30;16.65;;;;;;;;;;5031633;28;20404;-67
2024/01/10 10:51:34;;;;;;;30.20;15.60;;;;;;;;;;5031219;28;20021;-68
2024/01/10 10:54:00;;;;;;;45.53;14.85;;;;;;;;;;5028656;28;20053;-67
2024/01/10 10:56:30;;;;;;;22.63;14.13;;;;;;;;;;5031646;28;20028;-68
2024/01/10 10:58:57;;;;;;;25.98;14.63;;;;;;;;;;5031507;28;20022;-68
2024/01/10 11:01:23;;;;;;;30.55;14.38;;;;;;;;;;5031168;28;20026;-69
2024/01/10 11:03:49;;;;;;;27.63;14.95;;;;;;;;;;5031108;28;20025;-70
2024/01/10 11:06:17;;;;;;;26.25;15.30;;;;;;;;;;5031231;28;20506;-70
2024/01/10 11:08:48;;;;;;;31.70;14.10;;;;;;;;;;5031473;28;20030;-70
2024/01/10 11:11:33;;;;;;;23.50;14.88;;;;;;;;;;5031059;28;20026;-69
2024/01/10 11:14:22;;;;;;;30.60;14.38;;;;;;;;;;5031039;28;20080;-68
2024/01/10 11:17:09;;;;;;;23.90;14.15;;;;;;;;;;5031082;28;20029;-68
2024/01/10 11:19:55;;;;;;;18.77;13.43;;;;;;;;;;5030805;28;20554;-69
2024/01/10 11:22:39;;;;;;;26.95;13.57;;;;;;;;;;5031207;28;20033;-71
2024/01/10 11:25:06;;;;;;;21.80;13.30;;;;;;;;;;5031194;28;20025;-68
2024/01/10 11:27:32;;;;;;;21.98;12.30;;;;;;;;;;5031005;28;20033;-75
2024/01/10 11:29:58;;;;;;;26.08;14.18;;;;;;;;;;5030707;28;20037;-70
2024/01/10 11:32:24;;;;;;;29.60;14.70;;;;;;;;;;5031124;28;20025;-71
2024/01/10 11:34:53;;;;;;;25.27;14.25;;;;;;;;;;5031290;28;20101;-72
2024/01/10 11:37:19;;;;;;;29.75;12.60;;;;;;;;;;5030897;28;20390;-69
2024/01/10 11:39:45;;;;;;;24.63;13.30;;;;;;;;;;5030551;28;20037;-69
2024/01/10 11:42:12;;;;;;;24.85;13.30;;;;;;;;;;5031079;28;20025;-69
2024/01/10 11:44:51;;;;;;;28.20;12.77;;;;;;;;;;5032121;28;20036;-72
2024/01/10 11:47:20;;;;;;;45.22;14.45;;;;;;;;;;5031566;28;20022;-71
2024/01/10 11:49:56;;;;;;;25.85;11.40;;;;;;;;;;5030524;28;20521;-71
2024/01/10 11:52:23;;;;;;;20.48;11.05;;;;;;;;;;5030983;28;20033;-72
2024/01/10 11:54:50;;;;;;;22.42;11.40;;;;;;;;;;5031026;28;20402;-72
2024/01/10 11:57:22;;;;;;;21.55;10.52;;;;;;;;;;5032555;28;20034;-72
2024/01/10 11:59:52;;;;;;;15.95;9.73;;;;;;;;;;5034606;28;20446;-72
2024/01/10 12:02:19;;;;;;;14.73;9.13;;;;;;;;;;5034429;28;20074;-73
2024/01/10 12:04:46;;;;;;;21.85;9.90;;;;;;;;;;5034422;28;20048;-73
2024/01/10 12:07:13;;;;;;;25.42;9.13;;;;;;;;;;5034553;28;20383;-70
2024/01/10 12:09:39;;;;;;;24.73;9.63;;;;;;;;;;5034139;28;20021;-70
2024/01/10 12:12:05;;;;;;;24.13;9.73;;;;;;;;;;5033100;28;20052;-71
2024/01/10 12:14:32;;;;;;;23.42;9.50;;;;;;;;;;5034159;28;20025;-70
2024/01/10 12:16:58;;;;;;;19.48;9.52;;;;;;;;;;5034294;28;20048;-71
2024/01/10 12:19:24;;;;;;;19.15;9.38;;;;;;;;;;5034129;28;20071;-70
2024/01/10 12:21:50;;;;;;;13.73;8.57;;;;;;;;;;5032697;28;20025;-72
2024/01/10 12:24:16;;;;;;;20.90;8.93;;;;;;;;;;5034046;28;20029;-71
2024/01/10 12:26:46;;;;;;;14.57;8.68;;;;;;;;;;5034268;28;20029;-71
2024/01/10 12:29:12;;;;;;;16.30;8.82;;;;;;;;;;5033788;28;20391;-71
2024/01/10 12:31:39;;;;;;;14.63;7.47;;;;;;;;;;5033785;28;20026;-72
2024/01/10 12:34:09;;;;;;;12.23;7.68;;;;;;;;;;5033718;28;20107;-71
2024/01/10 12:36:35;;;;;;;17.38;7.20;;;;;;;;;;5034035;28;20014;-72
2024/01/10 12:39:01;;;;;;;13.30;7.45;;;;;;;;;;5033375;28;20021;-70
2024/01/10 12:41:27;;;;;;;15.68;7.20;;;;;;;;;;5033544;28;20060;-72
2024/01/10 12:43:56;;;;;;;15.77;7.43;;;;;;;;;;5034008;28;20034;-74
2024/01/10 12:46:25;;;;;;;16.33;6.25;;;;;;;;;;5033802;28;20030;-74
2024/01/10 12:49:02;;;;;;;12.23;6.20;;;;;;;;;;5032283;28;20017;-74
2024/01/10 12:51:29;;;;;;;17.83;8.00;;;;;;;;;;5033601;28;20053;-72
2024/01/10 12:53:56;;;;;;;13.88;7.10;;;;;;;;;;5033736;28;20127;-72
2024/01/10 12:56:22;;;;;;;22.17;7.45;;;;;;;;;;5033271;28;20547;-72
2024/01/10 12:58:48;;;;;;;18.88;7.72;;;;;;;;;;5033152;28;20025;-72
2024/01/10 13:01:15;;;;;;;16.50;6.53;;;;;;;;;;5033556;28;20399;-73
2024/01/10 13:03:41;;;;;;;12.93;7.13;;;;;;;;;;5033568;28;20390;-70
2024/01/10 13:06:07;;;;;;;14.63;6.75;;;;;;;;;;5033569;28;20021;-72
2024/01/10 13:08:33;;;;;;;13.23;6.45;;;;;;;;;;5032962;28;20490;-72